Terminal Aerodrome Forecast
Issued by NWS Albuquerque, NM

Home | Current Version | Previous Version | Text Only | Print | Product List | Glossary On
Versions: 1 2 3 4 5 6 7 8 9 10 11 12 13 14 15 16 17 18
000
FTUS45 KABQ 231130
TAFABQ
TAF
KABQ 231130Z 2312/2412 VRB06KT P6SM SCT200
     FM231800 24008KT P6SM SCT080
     FM232100 25012G20KT P6SM BKN090
     FM240200 31006KT P6SM BKN110=

USA.gov is the U.S. government's official web portal to all federal, state and local government web resources and services.